sensor_id;sensor_type;location;lat;lon;timestamp;pressure;altitude;pressure_sealevel;temperature;humidity
51460;BME280;37534;39.772;2.718;2023-02-17T00:00:28;102818.47;;;10.05;100.00
51460;BME280;37534;39.772;2.718;2023-02-17T00:02:58;102819.28;;;10.01;100.00
51460;BME280;37534;39.772;2.718;2023-02-17T00:05:25;102808.94;;;9.98;100.00
51460;BME280;37534;39.772;2.718;2023-02-17T00:20:04;102795.69;;;9.61;100.00
51460;BME280;37534;39.772;2.718;2023-02-17T00:22:30;102782.66;;;9.49;100.00
51460;BME280;37534;39.772;2.718;2023-02-17T00:24:56;102801.56;;;9.51;100.00
51460;BME280;37534;39.772;2.718;2023-02-17T00:27:21;102803.28;;;9.52;100.00
51460;BME280;37534;39.772;2.718;2023-02-17T00:45:01;102788.06;;;9.03;100.00
51460;BME280;37534;39.772;2.718;2023-02-17T00:47:26;102794.16;;;9.08;100.00
51460;BME280;37534;39.772;2.718;2023-02-17T01:08:09;102798.53;;;8.54;100.00
51460;BME280;37534;39.772;2.718;2023-02-17T01:10:36;102819.09;;;8.54;100.00
51460;BME280;37534;39.772;2.718;2023-02-17T01:13:03;102809.84;;;8.66;100.00
51460;BME280;37534;39.772;2.718;2023-02-17T01:15:29;102810.81;;;8.72;100.00
51460;BME280;37534;39.772;2.718;2023-02-17T01:17:54;102814.28;;;8.76;100.00
51460;BME280;37534;39.772;2.718;2023-02-17T01:20:20;102809.16;;;8.79;100.00
51460;BME280;37534;39.772;2.718;2023-02-17T01:22:45;102803.94;;;8.73;100.00
51460;BME280;37534;39.772;2.718;2023-02-17T01:25:11;102811.53;;;8.64;100.00
51460;BME280;37534;39.772;2.718;2023-02-17T01:27:37;102805.31;;;8.52;100.00
51460;BME280;37534;39.772;2.718;2023-02-17T01:30:03;102800.25;;;8.55;100.00
51460;BME280;37534;39.772;2.718;2023-02-17T01:32:29;102801.13;;;8.57;100.00
51460;BME280;37534;39.772;2.718;2023-02-17T01:34:55;102802.59;;;8.43;100.00
51460;BME280;37534;39.772;2.718;2023-02-17T01:37:20;102810.16;;;8.34;100.00
51460;BME280;37534;39.772;2.718;2023-02-17T01:39:46;102813.38;;;8.24;100.00
51460;BME280;37534;39.772;2.718;2023-02-17T01:42:16;102820.22;;;8.22;100.00
51460;BME280;37534;39.772;2.718;2023-02-17T01:47:49;102818.38;;;8.14;100.00
51460;BME280;37534;39.772;2.718;2023-02-17T01:50:19;102820.00;;;8.09;100.00
51460;BME280;37534;39.772;2.718;2023-02-17T01:52:46;102820.81;;;8.08;100.00
51460;BME280;37534;39.772;2.718;2023-02-17T01:55:14;102809.88;;;8.18;100.00
51460;BME280;37534;39.772;2.718;2023-02-17T01:57:41;102816.59;;;8.10;100.00
51460;BME280;37534;39.772;2.718;2023-02-17T02:00:09;102815.63;;;8.04;100.00
51460;BME280;37534;39.772;2.718;2023-02-17T02:02:36;102818.06;;;7.96;100.00
51460;BME280;37534;39.772;2.718;2023-02-17T02:05:03;102809.31;;;7.88;100.00
51460;BME280;37534;39.772;2.718;2023-02-17T02:07:32;102816.16;;;7.86;100.00
51460;BME280;37534;39.772;2.718;2023-02-17T02:09:59;102807.53;;;7.84;100.00
51460;BME280;37534;39.772;2.718;2023-02-17T02:12:29;102818.00;;;7.93;100.00
51460;BME280;37534;39.772;2.718;2023-02-17T02:14:58;102815.50;;;7.97;100.00
51460;BME280;37534;39.772;2.718;2023-02-17T02:25:59;102808.19;;;7.73;100.00
51460;BME280;37534;39.772;2.718;2023-02-17T02:28:47;102805.44;;;7.64;100.00
51460;BME280;37534;39.772;2.718;2023-02-17T02:33:55;102805.38;;;7.61;100.00
51460;BME280;37534;39.772;2.718;2023-02-17T02:36:27;102795.50;;;7.83;100.00
51460;BME280;37534;39.772;2.718;2023-02-17T02:39:06;102788.69;;;7.85;100.00
51460;BME280;37534;39.772;2.718;2023-02-17T02:41:40;102796.25;;;7.75;100.00
51460;BME280;37534;39.772;2.718;2023-02-17T02:44:08;102796.94;;;7.67;100.00
51460;BME280;37534;39.772;2.718;2023-02-17T02:46:35;102793.28;;;7.55;100.00
51460;BME280;37534;39.772;2.718;2023-02-17T02:49:01;102803.72;;;7.63;100.00
51460;BME280;37534;39.772;2.718;2023-02-17T03:07:53;102790.06;;;7.67;100.00
51460;BME280;37534;39.772;2.718;2023-02-17T03:10:20;102780.72;;;7.69;100.00
51460;BME280;37534;39.772;2.718;2023-02-17T03:12:46;102784.97;;;7.69;100.00
51460;BME280;37534;39.772;2.718;2023-02-17T03:15:21;102793.59;;;7.72;100.00
51460;BME280;37534;39.772;2.718;2023-02-17T03:17:49;102783.41;;;7.75;100.00
51460;BME280;37534;39.772;2.718;2023-02-17T03:20:14;102795.81;;;7.98;100.00
51460;BME280;37534;39.772;2.718;2023-02-17T03:22:44;102804.41;;;8.00;100.00
51460;BME280;37534;39.772;2.718;2023-02-17T03:25:11;102812.41;;;8.17;100.00
51460;BME280;37534;39.772;2.718;2023-02-17T03:27:37;102793.50;;;8.13;100.00
51460;BME280;37534;39.772;2.718;2023-02-17T03:30:04;102805.47;;;8.11;100.00
51460;BME280;37534;39.772;2.718;2023-02-17T03:32:29;102809.72;;;8.09;100.00
51460;BME280;37534;39.772;2.718;2023-02-17T03:34:55;102803.59;;;8.03;100.00
51460;BME280;37534;39.772;2.718;2023-02-17T03:37:21;102812.16;;;8.02;100.00
51460;BME280;37534;39.772;2.718;2023-02-17T03:39:46;102806.13;;;7.99;100.00
51460;BME280;37534;39.772;2.718;2023-02-17T03:42:12;102811.47;;;8.10;100.00
51460;BME280;37534;39.772;2.718;2023-02-17T03:44:37;102798.56;;;8.09;100.00
51460;BME280;37534;39.772;2.718;2023-02-17T03:47:03;102804.34;;;7.97;100.00
51460;BME280;37534;39.772;2.718;2023-02-17T03:49:29;102801.00;;;8.03;100.00
51460;BME280;37534;39.772;2.718;2023-02-17T03:51:54;102812.31;;;8.11;100.00
51460;BME280;37534;39.772;2.718;2023-02-17T03:54:20;102797.53;;;7.99;100.00
51460;BME280;37534;39.772;2.718;2023-02-17T03:56:45;102802.63;;;7.96;100.00
51460;BME280;37534;39.772;2.718;2023-02-17T03:59:11;102812.56;;;7.77;100.00
51460;BME280;37534;39.772;2.718;2023-02-17T04:01:36;102812.25;;;7.62;100.00
51460;BME280;37534;39.772;2.718;2023-02-17T04:04:02;102810.34;;;7.52;100.00
51460;BME280;37534;39.772;2.718;2023-02-17T04:06:28;102803.47;;;7.51;100.00
51460;BME280;37534;39.772;2.718;2023-02-17T04:08:54;102803.38;;;7.48;100.00
51460;BME280;37534;39.772;2.718;2023-02-17T04:11:19;102792.16;;;7.42;100.00
51460;BME280;37534;39.772;2.718;2023-02-17T04:13:45;102800.19;;;7.58;100.00
51460;BME280;37534;39.772;2.718;2023-02-17T04:16:11;102796.81;;;7.62;100.00
51460;BME280;37534;39.772;2.718;2023-02-17T04:18:37;102810.63;;;7.67;100.00
51460;BME280;37534;39.772;2.718;2023-02-17T04:21:03;102801.69;;;7.47;100.00
51460;BME280;37534;39.772;2.718;2023-02-17T04:23:29;102804.94;;;7.39;100.00
51460;BME280;37534;39.772;2.718;2023-02-17T04:25:55;102801.28;;;7.28;100.00
51460;BME280;37534;39.772;2.718;2023-02-17T04:28:21;102811.63;;;7.31;100.00
51460;BME280;37534;39.772;2.718;2023-02-17T04:30:48;102817.59;;;7.30;100.00
51460;BME280;37534;39.772;2.718;2023-02-17T04:33:15;102815.16;;;7.36;100.00
51460;BME280;37534;39.772;2.718;2023-02-17T04:35:41;102819.41;;;7.34;100.00
51460;BME280;37534;39.772;2.718;2023-02-17T04:38:07;102820.03;;;7.24;100.00
51460;BME280;37534;39.772;2.718;2023-02-17T04:40:35;102798.19;;;7.03;100.00
51460;BME280;37534;39.772;2.718;2023-02-17T04:43:01;102807.06;;;7.18;100.00
51460;BME280;37534;39.772;2.718;2023-02-17T04:45:26;102804.28;;;7.09;100.00
51460;BME280;37534;39.772;2.718;2023-02-17T04:47:52;102809.13;;;6.96;100.00
51460;BME280;37534;39.772;2.718;2023-02-17T04:50:17;102809.81;;;6.89;100.00
51460;BME280;37534;39.772;2.718;2023-02-17T04:52:43;102818.22;;;6.82;100.00
51460;BME280;37534;39.772;2.718;2023-02-17T04:55:09;102826.81;;;6.82;100.00
51460;BME280;37534;39.772;2.718;2023-02-17T04:57:35;102826.00;;;6.85;100.00
51460;BME280;37534;39.772;2.718;2023-02-17T05:00:01;102827.75;;;6.86;100.00
51460;BME280;37534;39.772;2.718;2023-02-17T05:02:27;102830.19;;;6.81;100.00
51460;BME280;37534;39.772;2.718;2023-02-17T05:04:53;102825.63;;;6.70;100.00
51460;BME280;37534;39.772;2.718;2023-02-17T05:07:19;102823.75;;;6.62;100.00
51460;BME280;37534;39.772;2.718;2023-02-17T05:09:45;102835.75;;;6.63;100.00
51460;BME280;37534;39.772;2.718;2023-02-17T05:12:10;102825.28;;;6.54;100.00
51460;BME280;37534;39.772;2.718;2023-02-17T05:14:36;102830.47;;;6.57;100.00
51460;BME280;37534;39.772;2.718;2023-02-17T05:17:02;102837.38;;;6.60;100.00
51460;BME280;37534;39.772;2.718;2023-02-17T05:19:28;102837.41;;;6.61;100.00
51460;BME280;37534;39.772;2.718;2023-02-17T05:21:54;102837.50;;;6.64;100.00
51460;BME280;37534;39.772;2.718;2023-02-17T05:24:19;102837.25;;;6.55;100.00
51460;BME280;37534;39.772;2.718;2023-02-17T05:26:45;102838.78;;;6.47;100.00
51460;BME280;37534;39.772;2.718;2023-02-17T05:29:11;102836.25;;;6.49;100.00
51460;BME280;37534;39.772;2.718;2023-02-17T05:31:36;102817.84;;;6.32;100.00
51460;BME280;37534;39.772;2.718;2023-02-17T05:34:02;102844.66;;;6.44;100.00
51460;BME280;37534;39.772;2.718;2023-02-17T05:36:28;102847.88;;;6.36;100.00
51460;BME280;37534;39.772;2.718;2023-02-17T05:38:54;102854.66;;;6.34;100.00
51460;BME280;37534;39.772;2.718;2023-02-17T05:41:19;102854.66;;;6.34;100.00
51460;BME280;37534;39.772;2.718;2023-02-17T05:43:46;102845.25;;;6.33;100.00
51460;BME280;37534;39.772;2.718;2023-02-17T05:46:12;102849.19;;;6.21;100.00
51460;BME280;37534;39.772;2.718;2023-02-17T05:48:38;102852.63;;;6.20;100.00
51460;BME280;37534;39.772;2.718;2023-02-17T05:51:04;102845.59;;;6.13;100.00
51460;BME280;37534;39.772;2.718;2023-02-17T05:53:30;102855.22;;;6.23;100.00
51460;BME280;37534;39.772;2.718;2023-02-17T05:55:56;102854.28;;;6.20;100.00
51460;BME280;37534;39.772;2.718;2023-02-17T05:58:21;102851.38;;;6.07;100.00
51460;BME280;37534;39.772;2.718;2023-02-17T06:00:47;102853.00;;;6.04;100.00
51460;BME280;37534;39.772;2.718;2023-02-17T06:03:13;102853.09;;;6.07;100.00
51460;BME280;37534;39.772;2.718;2023-02-17T06:05:39;102871.88;;;6.06;100.00
51460;BME280;37534;39.772;2.718;2023-02-17T06:08:05;102864.88;;;6.00;100.00
51460;BME280;37534;39.772;2.718;2023-02-17T06:10:32;102866.56;;;6.00;100.00
51460;BME280;37534;39.772;2.718;2023-02-17T06:12:57;102866.47;;;5.97;100.00
51460;BME280;37534;39.772;2.718;2023-02-17T06:15:23;102867.56;;;6.05;100.00
51460;BME280;37534;39.772;2.718;2023-02-17T06:17:49;102879.47;;;6.03;100.00
51460;BME280;37534;39.772;2.718;2023-02-17T06:20:15;102874.88;;;5.93;100.00
51460;BME280;37534;39.772;2.718;2023-02-17T06:22:41;102882.53;;;5.91;100.00
51460;BME280;37534;39.772;2.718;2023-02-17T06:25:07;102881.53;;;5.86;100.00
51460;BME280;37534;39.772;2.718;2023-02-17T06:27:33;102882.69;;;5.96;100.00
51460;BME280;37534;39.772;2.718;2023-02-17T06:29:59;102883.59;;;5.98;100.00
51460;BME280;37534;39.772;2.718;2023-02-17T06:32:25;102886.16;;;5.98;100.00
51460;BME280;37534;39.772;2.718;2023-02-17T06:34:50;102888.34;;;5.85;100.00
51460;BME280;37534;39.772;2.718;2023-02-17T06:37:16;102895.13;;;5.83;100.00
51460;BME280;37534;39.772;2.718;2023-02-17T06:39:41;102890.69;;;5.78;100.00
51460;BME280;37534;39.772;2.718;2023-02-17T06:42:07;102895.03;;;5.80;100.00
51460;BME280;37534;39.772;2.718;2023-02-17T06:44:33;102890.84;;;5.84;100.00
51460;BME280;37534;39.772;2.718;2023-02-17T06:46:58;102900.94;;;5.78;100.00
51460;BME280;37534;39.772;2.718;2023-02-17T06:49:24;102908.47;;;5.73;100.00
51460;BME280;37534;39.772;2.718;2023-02-17T06:51:50;102910.66;;;5.89;100.00
51460;BME280;37534;39.772;2.718;2023-02-17T06:54:16;102914.22;;;5.95;100.00
51460;BME280;37534;39.772;2.718;2023-02-17T06:56:42;102922.91;;;5.98;100.00
51460;BME280;37534;39.772;2.718;2023-02-17T06:59:07;102910.53;;;5.85;100.00
51460;BME280;37534;39.772;2.718;2023-02-17T07:01:33;102919.78;;;5.80;100.00
51460;BME280;37534;39.772;2.718;2023-02-17T07:03:59;102928.28;;;5.79;100.00
51460;BME280;37534;39.772;2.718;2023-02-17T07:06:25;102930.72;;;5.74;100.00
51460;BME280;37534;39.772;2.718;2023-02-17T07:08:50;102934.28;;;5.79;100.00
51460;BME280;37534;39.772;2.718;2023-02-17T07:11:17;102937.56;;;6.02;100.00
51460;BME280;37534;39.772;2.718;2023-02-17T07:13:43;102939.28;;;6.03;100.00
51460;BME280;37534;39.772;2.718;2023-02-17T07:16:10;102941.78;;;6.02;100.00
51460;BME280;37534;39.772;2.718;2023-02-17T07:18:36;102928.53;;;5.88;100.00
51460;BME280;37534;39.772;2.718;2023-02-17T07:21:05;102936.41;;;5.94;100.00
51460;BME280;37534;39.772;2.718;2023-02-17T07:23:32;102945.84;;;5.95;100.00
51460;BME280;37534;39.772;2.718;2023-02-17T07:26:09;102948.66;;;6.03;100.00
51460;BME280;37534;39.772;2.718;2023-02-17T07:28:37;102962.44;;;6.06;100.00
51460;BME280;37534;39.772;2.718;2023-02-17T07:31:07;102946.31;;;6.11;100.00
51460;BME280;37534;39.772;2.718;2023-02-17T07:33:33;102949.78;;;6.13;100.00
51460;BME280;37534;39.772;2.718;2023-02-17T07:36:03;102960.94;;;6.13;100.00
51460;BME280;37534;39.772;2.718;2023-02-17T07:38:29;102950.47;;;6.07;100.00
51460;BME280;37534;39.772;2.718;2023-02-17T07:40:55;102966.06;;;6.13;100.00
51460;BME280;37534;39.772;2.718;2023-02-17T07:43:20;102964.41;;;6.15;100.00
51460;BME280;37534;39.772;2.718;2023-02-17T07:45:46;102962.88;;;6.22;100.00
51460;BME280;37534;39.772;2.718;2023-02-17T07:48:11;102966.41;;;6.27;100.00
51460;BME280;37534;39.772;2.718;2023-02-17T07:50:37;102964.25;;;6.41;100.00
51460;BME280;37534;39.772;2.718;2023-02-17T07:53:02;102964.25;;;6.41;100.00
51460;BME280;37534;39.772;2.718;2023-02-17T07:55:28;102954.66;;;6.34;100.00
51460;BME280;37534;39.772;2.718;2023-02-17T07:57:54;102968.47;;;6.39;100.00
51460;BME280;37534;39.772;2.718;2023-02-17T08:00:20;102966.75;;;6.39;100.00
51460;BME280;37534;39.772;2.718;2023-02-17T08:02:45;102960.03;;;6.43;100.00
51460;BME280;37534;39.772;2.718;2023-02-17T08:05:11;102973.94;;;6.51;100.00
51460;BME280;37534;39.772;2.718;2023-02-17T08:07:37;102963.81;;;6.56;100.00
51460;BME280;37534;39.772;2.718;2023-02-17T08:10:02;102971.13;;;6.74;100.00
51460;BME280;37534;39.772;2.718;2023-02-17T08:13:00;102973.81;;;6.80;100.00
51460;BME280;37534;39.772;2.718;2023-02-17T08:15:44;102981.22;;;7.01;100.00
51460;BME280;37534;39.772;2.718;2023-02-17T08:18:10;102980.66;;;7.13;100.00
51460;BME280;37534;39.772;2.718;2023-02-17T08:20:36;102974.94;;;7.24;100.00
51460;BME280;37534;39.772;2.718;2023-02-17T08:23:01;102978.75;;;8.19;100.00
51460;BME280;37534;39.772;2.718;2023-02-17T08:25:31;102983.56;;;10.08;100.00
51460;BME280;37534;39.772;2.718;2023-02-17T08:27:57;102975.81;;;12.05;100.00
51460;BME280;37534;39.772;2.718;2023-02-17T08:30:22;102986.09;;;14.22;100.00
51460;BME280;37534;39.772;2.718;2023-02-17T08:32:48;102986.50;;;15.88;100.00
51460;BME280;37534;39.772;2.718;2023-02-17T08:35:14;102995.03;;;17.67;93.13
51460;BME280;37534;39.772;2.718;2023-02-17T08:37:40;102999.69;;;19.12;73.65
51460;BME280;37534;39.772;2.718;2023-02-17T08:40:06;103007.06;;;20.52;69.01
51460;BME280;37534;39.772;2.718;2023-02-17T08:42:32;102997.94;;;21.92;60.82
51460;BME280;37534;39.772;2.718;2023-02-17T08:44:57;103013.69;;;23.04;54.76
51460;BME280;37534;39.772;2.718;2023-02-17T08:47:23;103012.47;;;23.93;50.41
51460;BME280;37534;39.772;2.718;2023-02-17T08:49:49;103022.75;;;24.55;44.52
51460;BME280;37534;39.772;2.718;2023-02-17T08:52:14;103024.47;;;24.18;44.57
51460;BME280;37534;39.772;2.718;2023-02-17T08:54:40;103022.38;;;24.62;43.58
51460;BME280;37534;39.772;2.718;2023-02-17T08:57:05;103022.69;;;23.99;44.86
51460;BME280;37534;39.772;2.718;2023-02-17T08:59:31;103028.97;;;22.95;45.92
51460;BME280;37534;39.772;2.718;2023-02-17T09:01:57;103028.94;;;23.78;46.19
51460;BME280;37534;39.772;2.718;2023-02-17T09:04:23;103015.19;;;22.67;47.76
51460;BME280;37534;39.772;2.718;2023-02-17T09:06:51;103022.97;;;22.70;49.03
51460;BME280;37534;39.772;2.718;2023-02-17T09:09:20;103017.50;;;24.17;45.90
51460;BME280;37534;39.772;2.718;2023-02-17T09:11:47;103021.19;;;25.55;42.51
51460;BME280;37534;39.772;2.718;2023-02-17T09:14:13;103021.81;;;26.72;40.92
51460;BME280;37534;39.772;2.718;2023-02-17T09:16:39;103028.66;;;27.21;37.79
51460;BME280;37534;39.772;2.718;2023-02-17T09:19:05;103015.09;;;27.11;37.48
51460;BME280;37534;39.772;2.718;2023-02-17T09:21:30;103014.97;;;26.84;37.14
51460;BME280;37534;39.772;2.718;2023-02-17T09:23:56;103021.38;;;26.33;39.06
51460;BME280;37534;39.772;2.718;2023-02-17T09:26:22;103027.81;;;25.12;39.33
51460;BME280;37534;39.772;2.718;2023-02-17T09:28:48;103025.41;;;24.17;41.32
51460;BME280;37534;39.772;2.718;2023-02-17T09:31:20;103016.56;;;24.91;40.13
51460;BME280;37534;39.772;2.718;2023-02-17T09:33:47;103022.69;;;26.72;39.51
51460;BME280;37534;39.772;2.718;2023-02-17T09:36:15;103027.44;;;26.82;37.21
51460;BME280;37534;39.772;2.718;2023-02-17T09:38:41;103024.13;;;24.06;42.65
51460;BME280;37534;39.772;2.718;2023-02-17T09:44:01;103028.16;;;25.90;39.27
51460;BME280;37534;39.772;2.718;2023-02-17T09:46:30;103023.84;;;25.20;39.59
51460;BME280;37534;39.772;2.718;2023-02-17T09:49:01;103031.59;;;24.71;40.59
51460;BME280;37534;39.772;2.718;2023-02-17T09:51:35;103024.31;;;26.43;37.85
51460;BME280;37534;39.772;2.718;2023-02-17T09:54:10;103026.44;;;27.43;36.14
51460;BME280;37534;39.772;2.718;2023-02-17T09:56:40;103014.88;;;26.39;37.11
51460;BME280;37534;39.772;2.718;2023-02-17T10:01:46;103022.34;;;25.67;40.07
51460;BME280;37534;39.772;2.718;2023-02-17T10:04:35;103020.47;;;26.65;37.63
51460;BME280;37534;39.772;2.718;2023-02-17T10:07:10;103016.91;;;25.53;38.89
51460;BME280;37534;39.772;2.718;2023-02-17T10:10:13;103022.00;;;25.40;39.37
51460;BME280;37534;39.772;2.718;2023-02-17T10:12:40;103021.31;;;25.70;39.67
51460;BME280;37534;39.772;2.718;2023-02-17T10:15:13;103016.34;;;25.79;38.07
51460;BME280;37534;39.772;2.718;2023-02-17T10:20:42;103033.31;;;24.72;40.80
51460;BME280;37534;39.772;2.718;2023-02-17T10:23:20;103029.22;;;25.36;39.53
51460;BME280;37534;39.772;2.718;2023-02-17T10:28:53;103037.03;;;26.68;36.78
51460;BME280;37534;39.772;2.718;2023-02-17T10:34:40;103031.19;;;26.15;37.16
51460;BME280;37534;39.772;2.718;2023-02-17T10:36:59;103041.09;;;25.10;38.16
51460;BME280;37534;39.772;2.718;2023-02-17T10:42:29;103038.63;;;24.53;41.52
51460;BME280;37534;39.772;2.718;2023-02-17T10:45:06;103032.06;;;24.62;40.15
51460;BME280;37534;39.772;2.718;2023-02-17T10:47:37;103025.94;;;24.42;39.76
51460;BME280;37534;39.772;2.718;2023-02-17T10:50:12;103030.50;;;24.58;40.30
51460;BME280;37534;39.772;2.718;2023-02-17T10:52:39;103016.91;;;26.18;37.37
51460;BME280;37534;39.772;2.718;2023-02-17T10:55:19;103021.28;;;26.19;37.26
51460;BME280;37534;39.772;2.718;2023-02-17T10:57:52;103016.19;;;26.78;35.09
51460;BME280;37534;39.772;2.718;2023-02-17T11:00:18;103018.47;;;28.01;35.08
51460;BME280;37534;39.772;2.718;2023-02-17T11:02:46;103012.97;;;26.41;36.71
51460;BME280;37534;39.772;2.718;2023-02-17T11:05:30;103031.53;;;27.90;34.17
51460;BME280;37534;39.772;2.718;2023-02-17T11:08:04;103022.88;;;26.37;37.30
51460;BME280;37534;39.772;2.718;2023-02-17T11:10:33;103025.44;;;26.55;35.83
51460;BME280;37534;39.772;2.718;2023-02-17T11:13:01;103023.69;;;28.30;34.17
51460;BME280;37534;39.772;2.718;2023-02-17T11:15:35;103014.28;;;29.68;31.84
51460;BME280;37534;39.772;2.718;2023-02-17T11:18:18;103022.88;;;30.70;32.65
51460;BME280;37534;39.772;2.718;2023-02-17T11:20:45;103014.31;;;32.25;31.00
51460;BME280;37534;39.772;2.718;2023-02-17T11:25:40;103019.09;;;33.05;29.30
51460;BME280;37534;39.772;2.718;2023-02-17T11:28:13;103003.81;;;34.08;28.05
51460;BME280;37534;39.772;2.718;2023-02-17T11:30:39;103003.84;;;34.37;27.50
51460;BME280;37534;39.772;2.718;2023-02-17T11:33:12;102994.56;;;34.22;27.88
51460;BME280;37534;39.772;2.718;2023-02-17T11:38:17;102991.84;;;31.38;30.36
51460;BME280;37534;39.772;2.718;2023-02-17T11:40:55;102993.34;;;31.97;31.00
51460;BME280;37534;39.772;2.718;2023-02-17T11:43:22;102986.81;;;31.90;29.49
51460;BME280;37534;39.772;2.718;2023-02-17T11:57:04;102980.59;;;32.87;28.73
51460;BME280;37534;39.772;2.718;2023-02-17T11:59:45;102989.69;;;33.36;27.85
51460;BME280;37534;39.772;2.718;2023-02-17T12:02:24;102983.03;;;33.21;26.81
51460;BME280;37534;39.772;2.718;2023-02-17T12:10:25;102968.41;;;32.73;28.21
51460;BME280;37534;39.772;2.718;2023-02-17T12:18:31;102974.50;;;33.37;27.80
51460;BME280;37534;39.772;2.718;2023-02-17T12:32:02;102965.31;;;32.99;27.38
51460;BME280;37534;39.772;2.718;2023-02-17T12:34:35;102954.59;;;32.68;27.60
51460;BME280;37534;39.772;2.718;2023-02-17T12:37:05;102957.78;;;32.08;28.21
51460;BME280;37534;39.772;2.718;2023-02-17T12:39:45;102966.88;;;31.39;29.43
51460;BME280;37534;39.772;2.718;2023-02-17T12:42:18;102957.88;;;30.37;30.21
51460;BME280;37534;39.772;2.718;2023-02-17T12:45:03;102958.44;;;28.13;33.39
51460;BME280;37534;39.772;2.718;2023-02-17T12:47:36;102960.81;;;26.73;35.51
51460;BME280;37534;39.772;2.718;2023-02-17T12:50:48;102950.44;;;25.60;36.76
51460;BME280;37534;39.772;2.718;2023-02-17T12:53:24;102939.59;;;26.13;36.96
51460;BME280;37534;39.772;2.718;2023-02-17T12:55:58;102948.47;;;26.28;36.57
51460;BME280;37534;39.772;2.718;2023-02-17T12:58:29;102943.03;;;25.67;37.88
51460;BME280;37534;39.772;2.718;2023-02-17T13:01:12;102945.94;;;24.78;38.09
51460;BME280;37534;39.772;2.718;2023-02-17T13:03:41;102937.97;;;23.69;40.66
51460;BME280;37534;39.772;2.718;2023-02-17T13:09:02;102925.47;;;22.52;43.93
51460;BME280;37534;39.772;2.718;2023-02-17T13:11:34;102923.66;;;22.10;47.07
51460;BME280;37534;39.772;2.718;2023-02-17T13:16:51;102921.31;;;21.57;49.03
51460;BME280;37534;39.772;2.718;2023-02-17T13:19:27;102922.56;;;21.47;48.64
51460;BME280;37534;39.772;2.718;2023-02-17T13:21:55;102913.25;;;22.51;46.46
51460;BME280;37534;39.772;2.718;2023-02-17T13:24:38;102922.19;;;23.29;45.08
51460;BME280;37534;39.772;2.718;2023-02-17T13:30:07;102917.06;;;22.65;46.08
51460;BME280;37534;39.772;2.718;2023-02-17T13:32:36;102912.16;;;22.13;47.75
51460;BME280;37534;39.772;2.718;2023-02-17T13:37:50;102921.19;;;21.83;47.95
51460;BME280;37534;39.772;2.718;2023-02-17T13:42:47;102907.88;;;22.10;47.42
51460;BME280;37534;39.772;2.718;2023-02-17T13:45:16;102921.25;;;22.26;48.52
51460;BME280;37534;39.772;2.718;2023-02-17T13:47:42;102921.66;;;21.71;51.34
51460;BME280;37534;39.772;2.718;2023-02-17T13:50:31;102922.91;;;20.87;52.66
51460;BME280;37534;39.772;2.718;2023-02-17T13:52:58;102926.31;;;20.36;54.30
51460;BME280;37534;39.772;2.718;2023-02-17T13:55:24;102923.28;;;20.21;59.00
51460;BME280;37534;39.772;2.718;2023-02-17T13:57:55;102915.34;;;19.94;58.96
51460;BME280;37534;39.772;2.718;2023-02-17T14:00:24;102923.25;;;19.93;59.35
51460;BME280;37534;39.772;2.718;2023-02-17T14:07:45;102913.00;;;22.13;51.45
51460;BME280;37534;39.772;2.718;2023-02-17T14:10:19;102914.56;;;23.03;45.28
51460;BME280;37534;39.772;2.718;2023-02-17T14:12:46;102906.91;;;24.48;42.85
51460;BME280;37534;39.772;2.718;2023-02-17T14:15:19;102898.94;;;25.84;41.57
51460;BME280;37534;39.772;2.718;2023-02-17T14:17:46;102901.25;;;26.66;39.42
51460;BME280;37534;39.772;2.718;2023-02-17T14:20:28;102913.78;;;27.50;38.00
51460;BME280;37534;39.772;2.718;2023-02-17T14:25:32;102899.56;;;27.52;38.42
51460;BME280;37534;39.772;2.718;2023-02-17T14:27:58;102895.22;;;27.50;37.78
51460;BME280;37534;39.772;2.718;2023-02-17T14:30:35;102899.47;;;26.36;39.08
51460;BME280;37534;39.772;2.718;2023-02-17T14:33:07;102894.94;;;25.60;40.89
51460;BME280;37534;39.772;2.718;2023-02-17T14:35:33;102898.69;;;24.20;44.36
51460;BME280;37534;39.772;2.718;2023-02-17T14:38:19;102902.84;;;22.89;49.61
51460;BME280;37534;39.772;2.718;2023-02-17T14:40:46;102889.31;;;23.57;49.05
51460;BME280;37534;39.772;2.718;2023-02-17T14:43:11;102897.81;;;24.37;46.36
51460;BME280;37534;39.772;2.718;2023-02-17T14:45:37;102889.47;;;25.14;42.67
51460;BME280;37534;39.772;2.718;2023-02-17T14:48:02;102893.28;;;24.58;43.79
51460;BME280;37534;39.772;2.718;2023-02-17T14:50:31;102889.53;;;24.62;42.27
51460;BME280;37534;39.772;2.718;2023-02-17T14:52:56;102881.69;;;25.29;41.24
51460;BME280;37534;39.772;2.718;2023-02-17T14:55:34;102877.94;;;25.80;41.30
51460;BME280;37534;39.772;2.718;2023-02-17T14:58:01;102869.44;;;26.22;41.14
51460;BME280;37534;39.772;2.718;2023-02-17T15:00:27;102867.84;;;26.19;39.66
51460;BME280;37534;39.772;2.718;2023-02-17T15:02:52;102872.66;;;26.57;38.91
51460;BME280;37534;39.772;2.718;2023-02-17T15:05:18;102872.16;;;26.20;40.20
51460;BME280;37534;39.772;2.718;2023-02-17T15:07:44;102864.84;;;26.70;40.00
51460;BME280;37534;39.772;2.718;2023-02-17T15:10:24;102866.66;;;27.41;37.91
51460;BME280;37534;39.772;2.718;2023-02-17T15:12:50;102868.84;;;27.06;38.04
51460;BME280;37534;39.772;2.718;2023-02-17T15:15:16;102867.50;;;26.40;39.21
51460;BME280;37534;39.772;2.718;2023-02-17T15:17:42;102873.59;;;26.56;38.87
51460;BME280;37534;39.772;2.718;2023-02-17T15:20:09;102866.75;;;26.37;39.38
51460;BME280;37534;39.772;2.718;2023-02-17T15:22:35;102865.66;;;26.56;39.18
51460;BME280;37534;39.772;2.718;2023-02-17T15:25:25;102861.75;;;25.39;41.24
51460;BME280;37534;39.772;2.718;2023-02-17T15:27:54;102868.03;;;25.03;42.26
51460;BME280;37534;39.772;2.718;2023-02-17T15:30:20;102870.59;;;25.38;41.71